Time;durP1;ratioP1;P1;durP2;ratioP2;P2;SDS_P1;SDS_P2;PMS_P1;PMS_P2;Temp;Humidity;BMP_temperature;BMP_pressure;BME280_temperature;BME280_humidity;BME280_pressure;Samples;Min_cycle;Max_cycle;Signal;HPM_P1;HPM_P2
2022/12/31 00:01:00;;;;;;;1.00;0.40;;;;;;;;;;5032486;28;20029;-67
2022/12/31 00:03:26;;;;;;;3.08;0.35;;;;;;;;;;5032672;28;20486;-67
2022/12/31 00:05:53;;;;;;;2.38;0.55;;;;;;;;;;5032458;28;20057;-67
2022/12/31 00:08:19;;;;;;;2.28;0.43;;;;;;;;;;5032515;28;20104;-67
2022/12/31 00:10:45;;;;;;;1.40;0.30;;;;;;;;;;5032846;28;20032;-67
2022/12/31 00:13:11;;;;;;;0.20;0.20;;;;;;;;;;5032385;28;20029;-67
2022/12/31 00:15:39;;;;;;;0.52;0.38;;;;;;;;;;5032430;28;20469;-67
2022/12/31 00:18:05;;;;;;;2.28;0.82;;;;;;;;;;5032881;28;20025;-67
2022/12/31 00:20:31;;;;;;;0.98;0.50;;;;;;;;;;5032494;28;20466;-68
2022/12/31 00:22:57;;;;;;;3.67;0.60;;;;;;;;;;5033181;28;20029;-67
2022/12/31 00:25:23;;;;;;;2.08;0.57;;;;;;;;;;5036845;28;20343;-67
2022/12/31 00:27:49;;;;;;;1.92;0.60;;;;;;;;;;5036199;28;20025;-67
2022/12/31 00:30:16;;;;;;;6.63;0.77;;;;;;;;;;5036603;28;20068;-67
2022/12/31 00:32:42;;;;;;;2.70;0.90;;;;;;;;;;5036468;28;20470;-66
2022/12/31 00:35:08;;;;;;;5.45;0.68;;;;;;;;;;5035129;28;20056;-67
2022/12/31 00:37:34;;;;;;;2.28;0.80;;;;;;;;;;5036562;28;20040;-68
2022/12/31 00:40:00;;;;;;;2.13;0.65;;;;;;;;;;5036483;28;20038;-67
2022/12/31 00:42:26;;;;;;;2.40;0.65;;;;;;;;;;5036209;28;20037;-68
2022/12/31 00:44:52;;;;;;;4.57;0.85;;;;;;;;;;5036369;28;20038;-67
2022/12/31 00:47:18;;;;;;;6.43;0.80;;;;;;;;;;5036183;28;20032;-67
2022/12/31 00:49:45;;;;;;;4.65;0.80;;;;;;;;;;5036173;28;20037;-67
2022/12/31 00:52:12;;;;;;;5.75;1.25;;;;;;;;;;5036361;28;20083;-67
2022/12/31 00:54:38;;;;;;;6.03;0.80;;;;;;;;;;5036062;28;20036;-68
2022/12/31 00:57:04;;;;;;;6.47;0.90;;;;;;;;;;5035956;28;20060;-67
2022/12/31 00:59:31;;;;;;;4.45;1.10;;;;;;;;;;5036205;28;20474;-67
2022/12/31 01:01:57;;;;;;;4.20;1.30;;;;;;;;;;5035956;28;20035;-67
2022/12/31 01:04:23;;;;;;;5.75;1.20;;;;;;;;;;5036096;28;20500;-67
2022/12/31 01:06:49;;;;;;;11.60;1.70;;;;;;;;;;5035639;28;20018;-67
2022/12/31 01:09:15;;;;;;;13.43;2.22;;;;;;;;;;5034901;28;20030;-67
2022/12/31 01:11:41;;;;;;;7.43;2.13;;;;;;;;;;5035438;28;20500;-67
2022/12/31 01:14:09;;;;;;;11.52;1.75;;;;;;;;;;5035862;28;20489;-67
2022/12/31 01:16:43;;;;;;;12.32;2.50;;;;;;;;;;5035819;28;20055;-67
2022/12/31 01:19:10;;;;;;;9.57;1.95;;;;;;;;;;5036018;28;20033;-66
2022/12/31 01:21:37;;;;;;;9.00;1.48;;;;;;;;;;5035584;28;20034;-67
2022/12/31 01:24:04;;;;;;;9.77;1.58;;;;;;;;;;5035490;28;20026;-67
2022/12/31 01:26:30;;;;;;;6.88;1.52;;;;;;;;;;5035190;28;20017;-67
2022/12/31 01:28:56;;;;;;;8.60;2.63;;;;;;;;;;5035669;28;20080;-67
2022/12/31 01:31:23;;;;;;;14.77;2.00;;;;;;;;;;5035372;28;20036;-67
2022/12/31 01:33:50;;;;;;;7.65;1.85;;;;;;;;;;5034424;28;20053;-68
2022/12/31 01:36:17;;;;;;;17.10;2.67;;;;;;;;;;5035193;28;20539;-67
2022/12/31 01:38:43;;;;;;;11.93;1.90;;;;;;;;;;5035327;28;20091;-68
2022/12/31 01:41:11;;;;;;;13.68;2.33;;;;;;;;;;5035052;28;20057;-67
2022/12/31 01:43:54;;;;;;;6.93;1.42;;;;;;;;;;5035084;28;20030;-68
2022/12/31 01:46:20;;;;;;;;;;;;;;;;;;5035624;28;20033;-67
2022/12/31 01:48:48;;;;;;;3.28;1.10;;;;;;;;;;5035198;28;19909;-68
2022/12/31 01:51:15;;;;;;;7.70;1.50;;;;;;;;;;5035116;28;20038;-68
2022/12/31 01:53:41;;;;;;;1.77;0.80;;;;;;;;;;5034946;28;20018;-67
2022/12/31 01:56:09;;;;;;;2.70;0.65;;;;;;;;;;5034670;28;20477;-67
2022/12/31 01:58:38;;;;;;;3.13;0.85;;;;;;;;;;5034822;28;20025;-68
2022/12/31 02:01:06;;;;;;;4.28;0.60;;;;;;;;;;5034751;28;20053;-67
2022/12/31 02:03:32;;;;;;;3.22;0.40;;;;;;;;;;5034952;28;20061;-68
2022/12/31 02:06:04;;;;;;;0.73;0.30;;;;;;;;;;5034656;28;20030;-68
2022/12/31 02:08:30;;;;;;;4.10;0.50;;;;;;;;;;5034846;28;20026;-67
2022/12/31 02:10:56;;;;;;;1.15;0.32;;;;;;;;;;5033497;28;20740;-67
2022/12/31 02:13:22;;;;;;;3.67;0.43;;;;;;;;;;5034752;28;20414;-67
2022/12/31 02:15:48;;;;;;;3.17;0.38;;;;;;;;;;5034589;28;20029;-67
2022/12/31 02:18:20;;;;;;;1.48;0.45;;;;;;;;;;5034642;28;20026;-67
2022/12/31 02:21:06;;;;;;;3.20;0.30;;;;;;;;;;5034318;28;20076;-68
2022/12/31 02:23:38;;;;;;;2.45;0.40;;;;;;;;;;5034420;28;20030;-67
2022/12/31 02:26:23;;;;;;;2.63;0.32;;;;;;;;;;5034538;28;20033;-67
2022/12/31 02:29:07;;;;;;;2.00;0.52;;;;;;;;;;5034420;28;20026;-67
2022/12/31 02:31:39;;;;;;;2.55;0.30;;;;;;;;;;5034499;28;20034;-67
2022/12/31 02:34:12;;;;;;;1.70;0.50;;;;;;;;;;5034138;28;20077;-67
2022/12/31 02:36:40;;;;;;;3.50;0.80;;;;;;;;;;5034275;28;20666;-67
2022/12/31 02:39:07;;;;;;;4.53;1.50;;;;;;;;;;5034018;28;20231;-67
2022/12/31 02:41:51;;;;;;;3.13;0.52;;;;;;;;;;5034593;28;20375;-67
2022/12/31 02:44:23;;;;;;;5.75;1.33;;;;;;;;;;5034208;28;20029;-67
2022/12/31 02:46:59;;;;;;;2.65;0.70;;;;;;;;;;5032703;28;20017;-67
2022/12/31 02:49:33;;;;;;;2.55;0.77;;;;;;;;;;5034131;28;20097;-67
2022/12/31 02:51:59;;;;;;;3.65;0.80;;;;;;;;;;5033511;28;20033;-68
2022/12/31 02:54:28;;;;;;;1.88;0.60;;;;;;;;;;5033778;28;20069;-67
2022/12/31 02:57:15;;;;;;;3.08;0.80;;;;;;;;;;5033921;28;20041;-67
2022/12/31 03:02:35;;;;;;;6.65;0.98;;;;;;;;;;5033922;28;20501;-67
2022/12/31 03:05:02;;;;;;;6.40;1.00;;;;;;;;;;5033734;28;20466;-67
2022/12/31 03:07:30;;;;;;;5.57;0.82;;;;;;;;;;5033454;28;20018;-67
2022/12/31 03:09:57;;;;;;;4.07;0.82;;;;;;;;;;5033589;28;20030;-67
2022/12/31 03:15:19;;;;;;;6.63;1.15;;;;;;;;;;5033548;28;20033;-67
2022/12/31 03:18:06;;;;;;;8.02;1.08;;;;;;;;;;5033486;28;20075;-67
2022/12/31 03:23:23;;;;;;;1.70;0.75;;;;;;;;;;5033187;28;20049;-68
2022/12/31 03:25:49;;;;;;;2.33;0.60;;;;;;;;;;5033344;28;20143;-67
2022/12/31 03:28:18;;;;;;;3.22;0.60;;;;;;;;;;5033636;28;20029;-67
2022/12/31 03:30:46;;;;;;;2.55;0.55;;;;;;;;;;5033138;28;20053;-67
2022/12/31 03:33:13;;;;;;;0.88;0.40;;;;;;;;;;5033048;28;20029;-67
2022/12/31 03:35:40;;;;;;;2.20;0.50;;;;;;;;;;5033410;28;20040;-67
2022/12/31 03:38:06;;;;;;;1.58;0.60;;;;;;;;;;5032897;28;20033;-67
2022/12/31 03:40:36;;;;;;;4.35;0.60;;;;;;;;;;5033133;28;20064;-67
2022/12/31 03:43:03;;;;;;;2.35;0.50;;;;;;;;;;5032894;28;20438;-67
2022/12/31 03:45:29;;;;;;;2.80;0.47;;;;;;;;;;5033141;28;20029;-67
2022/12/31 03:47:55;;;;;;;2.85;0.50;;;;;;;;;;5032905;28;20043;-67
2022/12/31 03:50:21;;;;;;;1.90;0.55;;;;;;;;;;5032894;28;20026;-67
2022/12/31 03:52:47;;;;;;;2.65;0.52;;;;;;;;;;5032787;28;20037;-67
2022/12/31 03:55:13;;;;;;;2.53;0.55;;;;;;;;;;5032979;28;20026;-67
2022/12/31 03:57:40;;;;;;;6.03;0.75;;;;;;;;;;5032865;28;20029;-67
2022/12/31 04:00:07;;;;;;;4.22;0.65;;;;;;;;;;5032711;28;20393;-68
2022/12/31 04:02:33;;;;;;;2.90;0.90;;;;;;;;;;5032805;28;20461;-68
2022/12/31 04:04:59;;;;;;;2.63;0.90;;;;;;;;;;5032237;28;20032;-67
2022/12/31 04:07:25;;;;;;;4.88;0.82;;;;;;;;;;5032831;28;20040;-67
2022/12/31 04:09:51;;;;;;;12.55;1.40;;;;;;;;;;5032634;28;20076;-67
2022/12/31 04:12:18;;;;;;;9.52;1.48;;;;;;;;;;5032703;28;20124;-67
2022/12/31 04:14:44;;;;;;;11.07;1.83;;;;;;;;;;5032872;28;20478;-67
2022/12/31 04:17:10;;;;;;;7.03;1.50;;;;;;;;;;5032668;28;20030;-67
2022/12/31 04:19:36;;;;;;;11.02;2.25;;;;;;;;;;5032558;28;20044;-67
2022/12/31 04:22:03;;;;;;;11.10;1.83;;;;;;;;;;5032439;28;20052;-67
2022/12/31 04:24:29;;;;;;;10.55;2.33;;;;;;;;;;5032631;28;20109;-67
2022/12/31 04:26:55;;;;;;;17.80;2.33;;;;;;;;;;5032413;28;20026;-67
2022/12/31 04:29:22;;;;;;;12.32;1.70;;;;;;;;;;5032700;28;20446;-67
2022/12/31 04:31:48;;;;;;;11.40;2.58;;;;;;;;;;5032523;28;20033;-67
2022/12/31 04:34:14;;;;;;;11.30;1.92;;;;;;;;;;5032273;28;20444;-67
2022/12/31 04:36:40;;;;;;;14.45;2.30;;;;;;;;;;5032599;28;20034;-67
2022/12/31 04:39:06;;;;;;;11.10;2.10;;;;;;;;;;5032345;28;20067;-67
2022/12/31 04:41:32;;;;;;;8.82;2.10;;;;;;;;;;5032461;28;20124;-67
2022/12/31 04:43:59;;;;;;;11.00;2.00;;;;;;;;;;5032229;28;20025;-67
2022/12/31 04:46:27;;;;;;;10.30;2.40;;;;;;;;;;5032418;28;20071;-67
2022/12/31 04:48:53;;;;;;;10.85;1.50;;;;;;;;;;5032148;28;20444;-67
2022/12/31 04:51:20;;;;;;;10.55;1.33;;;;;;;;;;5032318;28;20397;-67
2022/12/31 04:53:46;;;;;;;5.53;0.90;;;;;;;;;;5032449;28;20033;-67
2022/12/31 04:56:13;;;;;;;5.45;1.08;;;;;;;;;;5032352;28;20457;-67
2022/12/31 04:58:40;;;;;;;4.10;1.38;;;;;;;;;;5031299;28;20037;-67
2022/12/31 05:01:06;;;;;;;7.65;1.35;;;;;;;;;;5032052;28;20116;-67
2022/12/31 05:03:33;;;;;;;3.55;1.05;;;;;;;;;;5032213;28;20534;-67
2022/12/31 05:06:04;;;;;;;4.85;1.40;;;;;;;;;;5030629;28;20457;-67
2022/12/31 05:08:30;;;;;;;5.60;1.45;;;;;;;;;;5032598;28;20026;-67
2022/12/31 05:10:56;;;;;;;9.52;1.20;;;;;;;;;;5035945;28;20048;-67
2022/12/31 05:13:22;;;;;;;9.15;1.52;;;;;;;;;;5035820;28;20040;-67
2022/12/31 05:15:49;;;;;;;4.38;1.17;;;;;;;;;;5035822;28;20030;-67
2022/12/31 05:18:15;;;;;;;7.30;1.48;;;;;;;;;;5035611;28;20504;-67
2022/12/31 05:20:41;;;;;;;6.75;1.65;;;;;;;;;;5035917;28;20075;-67
2022/12/31 05:23:07;;;;;;;9.85;1.52;;;;;;;;;;5035587;28;20029;-67
2022/12/31 05:25:33;;;;;;;12.55;1.65;;;;;;;;;;5035854;28;20065;-67
2022/12/31 05:28:00;;;;;;;7.78;1.58;;;;;;;;;;5035571;28;20032;-67
2022/12/31 05:30:26;;;;;;;12.57;2.10;;;;;;;;;;5035686;28;20417;-67
2022/12/31 05:32:52;;;;;;;8.90;1.98;;;;;;;;;;5035041;28;20037;-67
2022/12/31 05:35:18;;;;;;;9.80;1.88;;;;;;;;;;5035330;28;20516;-67
2022/12/31 05:37:44;;;;;;;10.55;1.45;;;;;;;;;;5034342;28;20477;-67
2022/12/31 05:40:11;;;;;;;9.63;2.50;;;;;;;;;;5034234;28;20025;-67
2022/12/31 05:42:37;;;;;;;12.30;2.28;;;;;;;;;;5033967;28;20025;-67
2022/12/31 05:45:05;;;;;;;7.53;1.90;;;;;;;;;;5034090;28;20401;-67
2022/12/31 05:47:31;;;;;;;14.07;2.10;;;;;;;;;;5033479;28;20026;-67
2022/12/31 05:49:57;;;;;;;12.40;2.25;;;;;;;;;;5033801;28;20033;-67
2022/12/31 05:52:23;;;;;;;7.13;2.13;;;;;;;;;;5033808;28;20017;-67
2022/12/31 05:54:51;;;;;;;8.15;1.75;;;;;;;;;;5033581;28;20022;-67
2022/12/31 05:57:17;;;;;;;9.77;1.42;;;;;;;;;;5032875;28;20040;-67
2022/12/31 05:59:43;;;;;;;9.07;1.70;;;;;;;;;;5033765;28;20024;-67
2022/12/31 06:02:09;;;;;;;5.25;1.40;;;;;;;;;;5033174;28;20053;-67
2022/12/31 06:04:35;;;;;;;4.55;1.10;;;;;;;;;;5033341;28;20033;-67
2022/12/31 06:07:01;;;;;;;3.50;0.93;;;;;;;;;;5033557;28;20029;-67
2022/12/31 06:09:27;;;;;;;10.45;1.42;;;;;;;;;;5033601;28;20029;-67
2022/12/31 06:11:54;;;;;;;1.70;0.60;;;;;;;;;;5033347;28;20032;-67
2022/12/31 06:14:20;;;;;;;5.70;0.70;;;;;;;;;;5033312;28;20049;-67
2022/12/31 06:16:46;;;;;;;3.08;0.98;;;;;;;;;;5032659;28;20041;-67
2022/12/31 06:19:12;;;;;;;1.48;0.32;;;;;;;;;;5032736;28;20032;-67
2022/12/31 06:21:38;;;;;;;2.22;0.30;;;;;;;;;;5032092;28;20505;-67
2022/12/31 06:24:05;;;;;;;0.80;0.22;;;;;;;;;;5033283;28;20110;-67
2022/12/31 06:26:31;;;;;;;4.22;1.40;;;;;;;;;;5033259;28;20017;-68
2022/12/31 06:28:57;;;;;;;1.75;0.43;;;;;;;;;;5033058;28;20029;-67
2022/12/31 06:31:23;;;;;;;1.75;0.60;;;;;;;;;;5032737;28;20026;-67
2022/12/31 06:33:49;;;;;;;1.85;0.40;;;;;;;;;;5032900;28;20049;-67
2022/12/31 06:36:15;;;;;;;3.08;0.50;;;;;;;;;;5032847;28;20021;-67
2022/12/31 06:38:42;;;;;;;4.00;0.63;;;;;;;;;;5033102;28;20029;-67
2022/12/31 06:41:12;;;;;;;2.08;0.88;;;;;;;;;;5032576;28;20021;-67
2022/12/31 06:43:39;;;;;;;2.05;0.50;;;;;;;;;;5032980;28;20017;-67
2022/12/31 06:46:06;;;;;;;1.27;0.28;;;;;;;;;;5032378;28;20049;-67
2022/12/31 06:48:34;;;;;;;1.02;0.30;;;;;;;;;;5030163;28;20049;-67
2022/12/31 06:51:04;;;;;;;3.15;0.65;;;;;;;;;;5032806;28;20087;-67
2022/12/31 06:53:30;;;;;;;1.42;0.50;;;;;;;;;;5035396;28;20358;-67
2022/12/31 06:55:58;;;;;;;2.35;0.70;;;;;;;;;;5043701;28;20025;-67
2022/12/31 06:58:25;;;;;;;2.15;0.75;;;;;;;;;;5041069;28;20408;-67
2022/12/31 07:00:59;;;;;;;2.55;0.50;;;;;;;;;;5042670;28;20032;-67
2022/12/31 07:03:25;;;;;;;2.90;0.50;;;;;;;;;;5038298;28;20053;-67
2022/12/31 07:05:57;;;;;;;4.90;0.85;;;;;;;;;;5034775;28;20056;-67
2022/12/31 07:08:26;;;;;;;2.67;0.52;;;;;;;;;;5038200;28;20563;-67
2022/12/31 07:10:59;;;;;;;1.42;0.52;;;;;;;;;;5038779;28;20029;-67
2022/12/31 07:13:36;;;;;;;0.82;0.30;;;;;;;;;;5037710;28;20037;-67
2022/12/31 07:16:02;;;;;;;2.97;0.68;;;;;;;;;;5037475;28;20029;-67
2022/12/31 07:18:47;;;;;;;2.85;0.43;;;;;;;;;;5034107;28;20025;-67
2022/12/31 07:21:17;;;;;;;2.85;0.60;;;;;;;;;;5022048;28;20026;-67
2022/12/31 07:23:44;;;;;;;2.03;0.50;;;;;;;;;;5035140;28;20116;-67
2022/12/31 07:26:28;;;;;;;3.95;0.52;;;;;;;;;;5038122;28;20021;-67
2022/12/31 07:28:54;;;;;;;4.18;0.90;;;;;;;;;;5036912;28;20040;-67
2022/12/31 07:31:32;;;;;;;6.78;1.10;;;;;;;;;;5038478;28;20745;-67
2022/12/31 07:33:59;;;;;;;3.90;1.20;;;;;;;;;;5035109;28;20042;-67
2022/12/31 07:36:26;;;;;;;3.92;1.27;;;;;;;;;;5038845;28;20104;-67
2022/12/31 07:39:12;;;;;;;8.60;1.80;;;;;;;;;;5040509;28;20448;-67
2022/12/31 07:41:58;;;;;;;7.10;1.67;;;;;;;;;;5037177;28;20029;-68
2022/12/31 07:44:31;;;;;;;9.25;1.73;;;;;;;;;;5038064;28;20025;-67
2022/12/31 07:46:59;;;;;;;6.53;1.40;;;;;;;;;;5026574;28;20025;-67
2022/12/31 07:49:26;;;;;;;8.13;1.65;;;;;;;;;;5033466;28;20299;-67
2022/12/31 07:51:53;;;;;;;4.85;1.85;;;;;;;;;;5032366;28;20018;-67
2022/12/31 07:54:19;;;;;;;7.95;1.95;;;;;;;;;;5022704;28;20029;-67
2022/12/31 07:56:46;;;;;;;9.32;2.00;;;;;;;;;;5015972;28;20033;-67
2022/12/31 07:59:12;;;;;;;12.35;1.90;;;;;;;;;;5014549;28;20110;-67
2022/12/31 08:01:43;;;;;;;6.43;1.85;;;;;;;;;;5013836;28;20490;-68
2022/12/31 08:04:25;;;;;;;6.45;1.80;;;;;;;;;;5023789;28;20026;-67
2022/12/31 08:07:01;;;;;;;11.02;2.33;;;;;;;;;;5016682;28;20025;-66
2022/12/31 08:09:46;;;;;;;8.70;3.03;;;;;;;;;;5019621;28;20052;-66
2022/12/31 08:12:12;;;;;;;17.73;3.15;;;;;;;;;;5017911;28;20038;-67
2022/12/31 08:14:46;;;;;;;15.23;3.50;;;;;;;;;;5021005;28;20034;-67
2022/12/31 08:17:16;;;;;;;10.23;3.10;;;;;;;;;;5022855;28;20052;-67
2022/12/31 08:19:42;;;;;;;12.48;3.85;;;;;;;;;;5031926;28;20064;-68
2022/12/31 08:22:14;;;;;;;16.52;2.83;;;;;;;;;;5033727;28;21253;-68
2022/12/31 08:24:48;;;;;;;14.40;3.07;;;;;;;;;;5031045;28;20043;-67
2022/12/31 08:27:23;;;;;;;22.83;3.97;;;;;;;;;;5031037;28;20557;-68
2022/12/31 08:29:56;;;;;;;21.00;4.38;;;;;;;;;;5031190;28;20560;-68
2022/12/31 08:32:22;;;;;;;24.65;5.22;;;;;;;;;;5031234;28;20029;-68
2022/12/31 08:35:02;;;;;;;25.65;5.13;;;;;;;;;;5027155;28;20555;-68
2022/12/31 08:37:36;;;;;;;23.35;5.05;;;;;;;;;;5031089;28;20037;-68
2022/12/31 08:40:08;;;;;;;32.50;6.60;;;;;;;;;;5029755;28;20112;-67
2022/12/31 08:42:43;;;;;;;42.95;6.13;;;;;;;;;;5031343;28;20033;-67
2022/12/31 08:45:16;;;;;;;34.00;5.85;;;;;;;;;;5034553;28;20029;-67
2022/12/31 08:47:50;;;;;;;39.47;7.18;;;;;;;;;;5024748;28;20029;-67
2022/12/31 08:50:18;;;;;;;36.25;6.07;;;;;;;;;;5035559;28;20448;-68
2022/12/31 08:52:44;;;;;;;34.20;6.38;;;;;;;;;;5034135;28;20053;-67
2022/12/31 08:55:17;;;;;;;32.47;5.78;;;;;;;;;;5032320;28;20508;-67
2022/12/31 08:58:09;;;;;;;29.55;5.18;;;;;;;;;;5031352;28;20454;-67
2022/12/31 09:00:37;;;;;;;29.88;6.10;;;;;;;;;;5034336;28;20029;-67
2022/12/31 09:03:12;;;;;;;27.15;5.63;;;;;;;;;;5035719;28;20116;-67
2022/12/31 09:05:57;;;;;;;27.63;5.57;;;;;;;;;;5032777;28;20021;-68
2022/12/31 09:08:41;;;;;;;25.00;5.15;;;;;;;;;;5035728;28;20488;-67
2022/12/31 09:11:12;;;;;;;37.15;6.88;;;;;;;;;;5028830;28;20045;-67
2022/12/31 09:13:53;;;;;;;32.63;6.43;;;;;;;;;;5029202;28;20037;-67
2022/12/31 09:16:25;;;;;;;31.80;6.97;;;;;;;;;;5017127;28;20034;-68
2022/12/31 09:18:51;;;;;;;33.85;6.72;;;;;;;;;;5030434;28;20044;-68
2022/12/31 09:21:17;;;;;;;37.47;6.53;;;;;;;;;;5031201;28;20041;-66
2022/12/31 09:23:44;;;;;;;44.67;7.07;;;;;;;;;;5035374;28;20100;-67
2022/12/31 09:26:36;;;;;;;26.88;6.40;;;;;;;;;;5032668;28;20036;-67
2022/12/31 09:29:23;;;;;;;28.15;5.63;;;;;;;;;;5030820;28;20132;-68
2022/12/31 09:32:09;;;;;;;29.80;7.43;;;;;;;;;;5031315;28;20085;-68
2022/12/31 09:34:54;;;;;;;38.83;6.38;;;;;;;;;;5025224;28;20487;-68
2022/12/31 09:37:25;;;;;;;22.17;5.80;;;;;;;;;;5031631;28;20112;-68
2022/12/31 09:39:52;;;;;;;26.17;6.15;;;;;;;;;;5023447;28;20045;-67
2022/12/31 09:42:45;;;;;;;37.67;6.15;;;;;;;;;;5033987;28;20029;-68
2022/12/31 09:45:30;;;;;;;31.10;6.10;;;;;;;;;;5054821;28;20119;-68
2022/12/31 09:48:12;;;;;;;38.65;7.13;;;;;;;;;;5051369;28;20029;-68
2022/12/31 09:50:59;;;;;;;28.13;5.70;;;;;;;;;;5049898;28;20099;-68
2022/12/31 09:53:37;;;;;;;26.05;6.55;;;;;;;;;;5039947;28;20037;-68
2022/12/31 09:56:10;;;;;;;34.92;5.60;;;;;;;;;;5051424;28;20048;-68
2022/12/31 09:58:36;;;;;;;19.88;5.20;;;;;;;;;;5051117;28;20037;-68
2022/12/31 10:01:22;;;;;;;25.98;6.90;;;;;;;;;;5050273;28;20037;-68
2022/12/31 10:04:03;;;;;;;31.60;5.60;;;;;;;;;;5051042;28;20473;-68
2022/12/31 10:06:32;;;;;;;26.85;5.90;;;;;;;;;;5051661;28;20039;-68
2022/12/31 10:09:31;;;;;;;34.88;7.20;;;;;;;;;;5051021;28;20044;-67
2022/12/31 10:12:00;;;;;;;34.00;6.35;;;;;;;;;;4935120;29;20157;-68
2022/12/31 10:14:38;;;;;;;30.83;6.22;;;;;;;;;;4922016;29;20040;-67
2022/12/31 10:17:10;;;;;;;29.50;6.03;;;;;;;;;;4920419;29;20157;-67
2022/12/31 10:19:39;;;;;;;38.08;6.05;;;;;;;;;;4919176;29;20036;-68
2022/12/31 10:22:24;;;;;;;29.95;5.40;;;;;;;;;;4927816;29;20039;-67
2022/12/31 10:25:07;;;;;;;26.48;5.88;;;;;;;;;;4934432;29;20031;-68
2022/12/31 10:27:33;;;;;;;;;;;;;;;;;;4933795;29;20498;-68
2022/12/31 10:30:02;;;;;;;20.42;4.85;;;;;;;;;;4934481;29;19947;-68
2022/12/31 10:32:31;;;;;;;23.88;5.35;;;;;;;;;;4934682;29;20039;-68
2022/12/31 10:35:16;;;;;;;25.67;5.53;;;;;;;;;;4936004;29;20052;-68
2022/12/31 10:37:45;;;;;;;23.13;5.30;;;;;;;;;;4940960;28;20126;-68
2022/12/31 10:40:23;;;;;;;32.10;6.35;;;;;;;;;;4941033;29;20039;-68
2022/12/31 10:43:04;;;;;;;27.13;5.93;;;;;;;;;;4937496;29;20042;-68
2022/12/31 10:45:33;;;;;;;27.33;6.25;;;;;;;;;;4933719;29;20511;-68
2022/12/31 10:48:09;;;;;;;30.92;7.00;;;;;;;;;;4999021;28;20033;-69
2022/12/31 10:50:35;;;;;;;36.47;6.63;;;;;;;;;;5019812;28;20034;-67
2022/12/31 10:53:22;;;;;;;31.58;7.32;;;;;;;;;;5023090;28;20465;-67
2022/12/31 10:56:07;;;;;;;32.22;7.30;;;;;;;;;;5031971;28;20025;-68
2022/12/31 10:58:36;;;;;;;44.05;7.40;;;;;;;;;;5014930;28;20113;-67
2022/12/31 11:01:36;;;;;;;38.08;6.40;;;;;;;;;;5028093;28;20029;-68
2022/12/31 11:04:21;;;;;;;25.05;6.22;;;;;;;;;;5038861;28;20053;-68
2022/12/31 11:07:03;;;;;;;39.08;8.80;;;;;;;;;;5020685;28;20030;-68
2022/12/31 11:09:45;;;;;;;33.78;6.22;;;;;;;;;;5031110;28;20082;-68
2022/12/31 11:12:20;;;;;;;35.83;7.00;;;;;;;;;;5026371;28;20549;-68
2022/12/31 11:14:46;;;;;;;37.88;7.50;;;;;;;;;;5018602;28;20029;-68
2022/12/31 11:17:15;;;;;;;34.67;6.38;;;;;;;;;;5020062;28;20098;-68
2022/12/31 11:19:57;;;;;;;35.08;6.90;;;;;;;;;;5032187;28;20108;-68
2022/12/31 11:22:42;;;;;;;36.85;7.07;;;;;;;;;;5031655;28;20049;-68
2022/12/31 11:25:11;;;;;;;26.95;6.95;;;;;;;;;;5031200;28;20021;-68
2022/12/31 11:28:13;;;;;;;27.25;7.15;;;;;;;;;;5031849;28;20021;-68
2022/12/31 11:30:39;;;;;;;39.15;6.80;;;;;;;;;;5023720;28;20450;-68
2022/12/31 11:33:24;;;;;;;35.97;7.03;;;;;;;;;;5019383;28;20529;-68
2022/12/31 11:36:09;;;;;;;36.42;7.13;;;;;;;;;;5020820;28;20044;-68
2022/12/31 11:38:41;;;;;;;31.40;7.72;;;;;;;;;;5029252;28;20046;-68
2022/12/31 11:41:11;;;;;;;33.10;5.80;;;;;;;;;;5030088;28;20030;-68
2022/12/31 11:43:55;;;;;;;36.60;8.43;;;;;;;;;;5029869;28;20025;-68
2022/12/31 11:46:23;;;;;;;29.70;6.43;;;;;;;;;;5023680;28;20037;-68
2022/12/31 11:48:52;;;;;;;33.65;8.10;;;;;;;;;;5020288;28;20041;-68
2022/12/31 11:51:37;;;;;;;27.23;6.53;;;;;;;;;;5016184;28;20056;-68
2022/12/31 11:54:38;;;;;;;21.35;6.65;;;;;;;;;;5023110;28;20051;-67
2022/12/31 11:57:22;;;;;;;26.88;4.97;;;;;;;;;;4926764;29;20063;-68
2022/12/31 11:59:51;;;;;;;34.17;6.68;;;;;;;;;;4932678;29;20043;-67
2022/12/31 12:02:17;;;;;;;32.90;6.40;;;;;;;;;;4928189;29;20148;-67
2022/12/31 12:04:44;;;;;;;31.55;6.50;;;;;;;;;;4932588;29;20043;-67
2022/12/31 12:07:13;;;;;;;35.92;6.82;;;;;;;;;;4950429;28;20050;-68
2022/12/31 12:09:40;;;;;;;26.48;6.47;;;;;;;;;;4948362;29;20039;-66
2022/12/31 12:12:06;;;;;;;36.65;7.03;;;;;;;;;;4950000;28;20134;-67
2022/12/31 12:14:32;;;;;;;31.88;5.88;;;;;;;;;;4946057;29;20036;-67
2022/12/31 12:16:59;;;;;;;34.90;6.78;;;;;;;;;;4940965;29;20035;-67
2022/12/31 12:19:27;;;;;;;37.55;7.72;;;;;;;;;;4950120;28;20094;-67
2022/12/31 12:21:53;;;;;;;34.05;6.32;;;;;;;;;;4935304;29;20031;-67
2022/12/31 12:24:21;;;;;;;35.50;6.95;;;;;;;;;;4951717;28;20031;-66
2022/12/31 12:26:48;;;;;;;36.78;6.68;;;;;;;;;;4948800;28;20027;-67
2022/12/31 12:29:14;;;;;;;33.85;6.72;;;;;;;;;;4930691;29;20043;-68
2022/12/31 12:31:45;;;;;;;29.75;6.57;;;;;;;;;;5007669;28;20811;-67
2022/12/31 12:34:24;;;;;;;23.45;5.85;;;;;;;;;;5020523;28;20048;-67
2022/12/31 12:36:51;;;;;;;30.90;5.68;;;;;;;;;;5024457;28;20025;-67
2022/12/31 12:39:24;;;;;;;37.33;7.40;;;;;;;;;;5018390;28;20057;-67
2022/12/31 12:42:10;;;;;;;33.33;8.45;;;;;;;;;;5021546;28;20085;-67
2022/12/31 12:44:36;;;;;;;29.60;5.75;;;;;;;;;;5020791;28;20246;-67
2022/12/31 12:47:04;;;;;;;30.83;7.47;;;;;;;;;;5021800;28;20010;-67
2022/12/31 12:49:32;;;;;;;33.63;6.35;;;;;;;;;;5025710;28;20501;-67
2022/12/31 12:52:01;;;;;;;38.20;6.63;;;;;;;;;;5021651;28;20360;-67
2022/12/31 12:54:34;;;;;;;35.92;6.57;;;;;;;;;;5025465;28;20041;-68
2022/12/31 12:57:39;;;;;;;31.50;6.57;;;;;;;;;;5028887;28;20056;-68
2022/12/31 13:00:40;;;;;;;24.02;5.57;;;;;;;;;;5043830;28;20032;-68
2022/12/31 13:03:06;;;;;;;33.78;6.32;;;;;;;;;;4963939;28;20035;-68
2022/12/31 13:05:40;;;;;;;26.95;5.20;;;;;;;;;;4969002;28;20042;-68
2022/12/31 13:08:07;;;;;;;29.38;6.60;;;;;;;;;;4967561;28;20034;-68
2022/12/31 13:10:38;;;;;;;32.13;6.72;;;;;;;;;;4969203;28;20558;-68
2022/12/31 13:13:16;;;;;;;30.10;5.97;;;;;;;;;;4962770;28;20027;-68
2022/12/31 13:16:01;;;;;;;33.15;6.13;;;;;;;;;;4969677;28;20069;-68
2022/12/31 13:18:42;;;;;;;35.45;7.03;;;;;;;;;;4967081;28;20051;-67
2022/12/31 13:21:47;;;;;;;28.40;7.03;;;;;;;;;;4969616;28;20781;-67
2022/12/31 13:24:21;;;;;;;35.25;5.65;;;;;;;;;;4887101;29;20429;-68
2022/12/31 13:26:53;;;;;;;32.70;7.15;;;;;;;;;;4890730;29;20024;-68
2022/12/31 13:29:22;;;;;;;43.40;7.60;;;;;;;;;;4885773;29;20049;-68
2022/12/31 13:31:49;;;;;;;37.38;8.35;;;;;;;;;;4847407;29;20070;-68
2022/12/31 13:34:18;;;;;;;41.28;6.90;;;;;;;;;;4857118;29;20057;-68
2022/12/31 13:36:46;;;;;;;36.47;6.47;;;;;;;;;;4887427;28;20500;-68
2022/12/31 13:39:17;;;;;;;40.95;9.25;;;;;;;;;;4954264;28;20042;-67
2022/12/31 13:41:48;;;;;;;32.20;8.55;;;;;;;;;;4953550;28;20042;-67
2022/12/31 13:44:19;;;;;;;40.80;7.47;;;;;;;;;;4953477;28;20535;-67
2022/12/31 13:46:51;;;;;;;36.77;7.17;;;;;;;;;;4942644;28;20098;-67
2022/12/31 13:49:30;;;;;;;37.40;6.57;;;;;;;;;;4952949;28;20043;-68
2022/12/31 13:52:05;;;;;;;43.78;7.13;;;;;;;;;;4953416;28;20054;-67
2022/12/31 13:54:35;;;;;;;30.85;6.28;;;;;;;;;;4973990;28;20065;-68
2022/12/31 13:57:08;;;;;;;29.33;6.32;;;;;;;;;;5033850;28;20022;-67
2022/12/31 13:59:37;;;;;;;37.38;7.18;;;;;;;;;;5033443;28;20433;-67
2022/12/31 14:02:03;;;;;;;34.08;7.13;;;;;;;;;;5025448;28;20037;-67
2022/12/31 14:04:32;;;;;;;30.27;6.50;;;;;;;;;;5031117;28;20540;-67
2022/12/31 14:07:18;;;;;;;28.55;6.68;;;;;;;;;;5032055;28;20072;-67
2022/12/31 14:09:45;;;;;;;34.00;6.75;;;;;;;;;;5030545;28;20022;-67
2022/12/31 14:12:30;;;;;;;32.28;6.25;;;;;;;;;;5033706;28;20025;-67
2022/12/31 14:14:59;;;;;;;29.08;6.68;;;;;;;;;;5033549;28;20132;-67
2022/12/31 14:17:31;;;;;;;35.95;5.93;;;;;;;;;;5033649;28;20392;-67
2022/12/31 14:20:01;;;;;;;35.65;6.45;;;;;;;;;;5030840;28;20033;-68
2022/12/31 14:22:28;;;;;;;32.15;7.13;;;;;;;;;;5028195;28;20140;-67
2022/12/31 14:24:55;;;;;;;32.83;7.32;;;;;;;;;;5028403;28;20025;-67
2022/12/31 14:27:24;;;;;;;28.90;7.13;;;;;;;;;;5032415;28;20034;-67
2022/12/31 14:29:56;;;;;;;39.80;7.03;;;;;;;;;;5030135;28;20104;-67
2022/12/31 14:32:41;;;;;;;36.72;7.40;;;;;;;;;;5033078;28;20017;-67
2022/12/31 14:35:31;;;;;;;44.80;8.93;;;;;;;;;;5028251;28;20096;-67
2022/12/31 14:38:04;;;;;;;31.25;6.70;;;;;;;;;;5013366;28;20053;-67
2022/12/31 14:40:49;;;;;;;40.25;8.00;;;;;;;;;;5021917;28;20052;-67
2022/12/31 14:43:22;;;;;;;41.35;8.55;;;;;;;;;;5021370;28;20032;-67
2022/12/31 14:46:00;;;;;;;40.42;8.75;;;;;;;;;;5030237;28;20068;-67
2022/12/31 14:48:35;;;;;;;34.80;7.68;;;;;;;;;;5019090;28;20550;-67
2022/12/31 14:51:02;;;;;;;51.63;8.45;;;;;;;;;;5021445;28;20024;-67
2022/12/31 14:53:29;;;;;;;34.40;7.57;;;;;;;;;;5020469;28;20026;-67
2022/12/31 14:55:56;;;;;;;34.60;8.80;;;;;;;;;;5023875;28;20030;-67
2022/12/31 14:58:29;;;;;;;35.15;8.40;;;;;;;;;;5018455;28;20045;-67
2022/12/31 15:00:56;;;;;;;32.47;7.45;;;;;;;;;;5025940;28;20033;-67
2022/12/31 15:03:33;;;;;;;29.42;6.82;;;;;;;;;;5021890;28;20061;-67
2022/12/31 15:06:14;;;;;;;40.67;8.85;;;;;;;;;;5030255;28;20029;-67
2022/12/31 15:08:56;;;;;;;32.45;7.55;;;;;;;;;;5026375;28;20104;-67